createdAt,value
2023-02-24T07:04:39.662Z,-40.00
2023-02-24T07:05:39.255Z,15.65
2023-02-24T08:15:55.107Z,19.28
2023-02-24T08:15:55.605Z,19.28
2023-02-24T08:16:55.584Z,19.32
2023-02-24T14:04:23.278Z,-40.00
2023-02-24T14:05:23.379Z,-40.00
2023-02-24T14:06:23.675Z,-40.00
2023-02-24T14:12:10.678Z,-40.00
2023-02-24T14:13:09.509Z,-40.00
2023-02-24T14:14:09.427Z,-40.00
2023-02-24T14:15:09.414Z,-40.00
2023-02-24T14:16:09.770Z,-40.00
2023-02-24T14:17:09.578Z,-40.00
2023-02-24T14:18:09.516Z,-40.00
2023-02-24T14:19:09.497Z,-40.00
2023-02-24T14:29:50.863Z,-40.00
2023-02-24T14:30:50.951Z,-40.00
2023-02-24T14:31:50.995Z,-40.00
2023-02-24T14:32:50.870Z,-40.00
2023-02-24T14:33:50.793Z,-40.00
2023-02-24T14:34:50.783Z,-40.00
2023-02-24T14:35:50.777Z,-40.00
2023-02-24T14:36:50.873Z,-40.00
2023-02-24T14:37:50.761Z,-40.00
2023-02-24T14:39:29.197Z,-40.00
2023-02-24T14:39:50.734Z,-40.00
2023-02-24T14:40:50.743Z,-40.00
2023-02-24T14:41:50.720Z,-40.00
2023-02-24T14:42:50.708Z,-40.00
2023-02-24T14:43:50.694Z,-40.00
2023-02-24T14:44:50.689Z,-40.00
2023-02-24T14:46:34.282Z,-40.00
2023-02-24T14:46:50.812Z,-40.00
2023-02-24T14:47:50.667Z,-40.00
2023-02-24T14:48:50.647Z,-40.00
2023-02-24T14:49:50.634Z,-40.00
2023-02-24T14:50:50.654Z,-40.00
2023-02-24T14:51:50.615Z,-40.00
2023-02-24T14:53:14.204Z,-40.00
2023-02-24T14:55:00.702Z,-40.00
2023-02-24T14:55:01.158Z,-40.00
2023-02-24T14:56:01.275Z,-40.00
2023-02-24T14:57:01.141Z,-40.00
2023-02-24T14:58:01.139Z,-40.00
2023-02-24T14:59:01.125Z,-40.00
2023-02-24T15:00:01.167Z,-40.00
2023-02-24T15:01:01.102Z,-40.00
2023-02-24T15:02:01.169Z,-40.00
2023-02-24T15:03:01.124Z,-40.00
2023-02-24T15:04:01.066Z,-40.00
2023-02-24T15:05:01.111Z,-40.00
2023-02-24T15:06:01.047Z,-40.00
2023-02-24T15:07:01.037Z,-40.00
2023-02-24T15:08:01.034Z,-40.00
2023-02-24T15:09:01.028Z,-40.00
2023-02-24T15:10:01.043Z,-40.00
2023-02-24T15:11:00.998Z,-40.00
2023-02-24T15:12:00.988Z,-40.00
2023-02-24T15:13:01.232Z,-40.00
2023-02-24T15:14:00.971Z,-40.00
2023-02-24T15:15:01.010Z,-40.00
2023-02-24T15:16:00.977Z,-40.00
2023-02-24T15:17:00.944Z,-40.00
2023-02-24T15:18:00.937Z,-40.00
2023-02-24T15:19:01.625Z,-40.00
2023-02-24T15:20:11.793Z,-40.00
2023-02-24T15:21:00.910Z,-40.00
2023-02-24T15:22:00.889Z,-40.00
2023-02-24T15:23:00.883Z,-40.00
2023-02-24T15:24:00.905Z,-40.00
2023-02-24T15:25:00.864Z,-40.00
2023-02-24T15:26:00.852Z,-40.00
2023-02-24T15:27:00.845Z,-40.00
2023-02-24T15:28:00.832Z,-40.00
2023-02-24T15:29:00.856Z,-40.00
2023-02-24T15:30:00.827Z,-40.00
2023-02-24T15:31:00.955Z,-40.00
2023-02-24T15:32:00.983Z,-40.00
2023-02-24T15:33:00.826Z,-40.00
2023-02-24T15:34:00.859Z,-40.00
2023-02-24T15:35:00.783Z,-40.00
2023-02-24T15:36:00.794Z,-40.00
2023-02-24T15:37:00.747Z,-40.00
2023-02-24T15:38:00.736Z,-40.00
2023-02-24T15:39:00.727Z,-40.00
2023-02-24T15:40:00.718Z,-40.00
2023-02-24T15:41:00.757Z,-40.00
2023-02-24T15:42:00.728Z,-40.00
2023-02-24T15:43:00.691Z,-40.00
2023-02-24T15:44:00.720Z,-40.00
2023-02-24T15:45:00.692Z,-40.00
2023-02-24T15:46:00.667Z,-40.00
2023-02-24T15:47:00.724Z,-40.00
2023-02-24T15:48:00.644Z,-40.00
2023-02-24T15:49:00.680Z,-40.00
2023-02-24T15:52:10.233Z,22.85
2023-02-24T15:53:10.210Z,22.82
2023-02-24T15:54:10.232Z,22.60
2023-02-24T15:55:10.192Z,22.42
2023-02-24T15:56:10.180Z,22.24
2023-02-24T15:57:10.170Z,21.98
2023-02-24T15:58:10.164Z,21.77
2023-02-24T15:59:10.145Z,21.71
2023-02-24T16:00:10.138Z,21.52
2023-02-24T16:01:10.278Z,21.34
2023-02-24T16:02:10.119Z,21.28
2023-02-24T16:03:10.133Z,21.17
2023-02-24T16:04:10.159Z,21.07
2023-02-24T16:05:10.087Z,20.95
2023-02-24T16:06:12.398Z,20.91
2023-02-24T16:07:10.095Z,20.87
2023-02-24T16:08:10.066Z,20.77
2023-02-24T16:09:10.059Z,20.70
2023-02-24T16:10:10.042Z,20.74
2023-02-24T16:11:10.056Z,20.73
2023-02-24T16:12:10.053Z,20.66
2023-02-24T16:13:10.031Z,20.66
2023-02-24T16:14:10.000Z,20.67
2023-02-24T16:15:09.993Z,20.58
2023-02-24T16:16:10.012Z,20.58
2023-02-24T16:17:10.014Z,20.55
2023-02-24T16:18:09.964Z,20.54
2023-02-24T16:19:09.980Z,20.48
2023-02-24T16:20:09.943Z,20.52
2023-02-24T16:21:09.976Z,20.47
2023-02-24T16:22:09.924Z,20.41
2023-02-24T16:23:09.921Z,20.47
2023-02-24T16:24:09.940Z,20.47
2023-02-24T16:25:09.897Z,20.48
2023-02-24T16:26:09.885Z,20.41
2023-02-24T16:27:09.875Z,20.39
2023-02-24T16:28:09.869Z,20.39
2023-02-24T16:29:09.911Z,20.39
2023-02-24T16:30:09.850Z,20.36
2023-02-24T16:31:09.887Z,20.38
2023-02-24T16:32:10.074Z,20.35
2023-02-24T16:33:09.953Z,20.39
2023-02-24T16:34:09.816Z,20.36
2023-02-24T16:35:09.830Z,20.38
2023-02-24T16:36:09.797Z,20.32
2023-02-24T16:37:09.788Z,20.39
2023-02-24T16:38:09.776Z,20.41
2023-02-24T16:39:09.770Z,20.41
2023-02-24T16:40:09.832Z,20.38
2023-02-24T16:41:09.759Z,20.33
2023-02-24T16:42:09.765Z,20.32
2023-02-24T16:43:09.735Z,20.29
2023-02-24T16:44:09.720Z,20.36
2023-02-24T16:45:09.739Z,20.28
2023-02-24T16:46:09.791Z,20.31
2023-02-24T16:47:09.694Z,20.29
2023-02-24T16:48:09.682Z,20.26
2023-02-24T16:49:09.697Z,20.36
2023-02-24T16:50:09.664Z,20.29
2023-02-24T16:51:09.658Z,20.28
2023-02-24T16:52:09.650Z,20.31
2023-02-24T16:53:09.636Z,20.23
2023-02-24T16:54:09.652Z,20.28
2023-02-24T16:55:09.618Z,20.21
2023-02-24T16:56:09.643Z,20.31
2023-02-24T16:57:09.627Z,20.28
2023-02-24T16:58:09.590Z,20.21
2023-02-24T16:59:09.610Z,20.29
2023-02-24T17:00:09.571Z,20.28
2023-02-24T17:01:09.649Z,20.33
2023-02-24T17:02:09.596Z,20.32
2023-02-24T17:03:09.542Z,20.38
2023-02-24T17:04:09.580Z,20.35
2023-02-24T17:05:09.526Z,20.36
2023-02-24T17:06:09.518Z,20.29
2023-02-24T17:07:09.509Z,20.24
2023-02-24T17:08:09.503Z,20.31
2023-02-24T17:09:09.493Z,20.28
2023-02-24T17:10:09.484Z,20.28
2023-02-24T17:11:09.471Z,20.21
2023-02-24T17:12:09.498Z,20.21
2023-02-24T17:13:09.453Z,20.26
2023-02-24T17:14:09.444Z,20.26
2023-02-24T17:15:09.436Z,20.26
2023-02-24T17:16:09.457Z,20.26
2023-02-24T17:17:09.534Z,20.26
2023-02-24T17:18:09.415Z,20.21
2023-02-24T17:19:09.398Z,20.24
2023-02-24T17:20:09.388Z,20.29
2023-02-24T17:21:09.379Z,20.24
2023-02-24T17:22:09.377Z,20.26
2023-02-24T17:23:09.361Z,20.24
2023-02-24T17:24:09.359Z,20.24
2023-02-24T17:25:09.345Z,20.28
2023-02-24T17:26:09.335Z,20.16
2023-02-24T17:27:09.324Z,20.16
2023-02-24T17:28:09.366Z,20.16
2023-02-24T17:29:09.343Z,20.17
2023-02-24T17:30:09.299Z,20.17
2023-02-24T17:31:09.355Z,20.14
2023-02-24T17:32:09.454Z,20.14
2023-02-24T17:33:09.269Z,20.16
2023-02-24T17:34:09.310Z,20.14
2023-02-24T17:35:09.252Z,20.18
2023-02-24T17:36:09.243Z,20.13
2023-02-24T17:37:09.234Z,20.14
2023-02-24T17:38:09.221Z,20.06
2023-02-24T17:39:09.213Z,20.08
2023-02-24T17:40:09.204Z,20.17
2023-02-24T17:41:09.196Z,20.16
2023-02-24T17:42:09.206Z,20.03
2023-02-24T17:43:09.175Z,20.13
2023-02-24T17:44:09.170Z,20.11
2023-02-24T17:45:09.152Z,20.05
2023-02-24T17:46:09.186Z,20.03
2023-02-24T17:47:09.131Z,20.06
2023-02-24T17:48:09.124Z,20.08
2023-02-24T17:49:09.119Z,20.06
2023-02-24T17:50:09.104Z,20.08
2023-02-24T17:51:09.128Z,20.14
2023-02-24T17:52:09.085Z,20.08
2023-02-24T17:53:09.076Z,20.06
2023-02-24T17:54:09.068Z,20.08
2023-02-24T17:55:09.058Z,20.08
2023-02-24T17:56:09.089Z,20.03
2023-02-24T17:57:09.051Z,20.06
2023-02-24T17:58:09.029Z,20.03
2023-02-24T17:59:09.017Z,20.08
2023-02-24T18:00:09.045Z,20.10
2023-02-24T18:01:09.030Z,20.06
2023-02-24T18:02:09.064Z,20.08
2023-02-24T18:03:09.140Z,20.16
2023-02-24T18:04:08.972Z,20.03
2023-02-24T18:05:08.964Z,20.03
2023-02-24T18:06:08.954Z,20.10
2023-02-24T18:07:08.971Z,20.08
2023-02-24T18:08:08.932Z,20.05
2023-02-24T18:09:08.923Z,20.06
2023-02-24T18:10:08.918Z,20.05
2023-02-24T18:11:08.930Z,20.03
2023-02-24T18:12:08.896Z,20.03
2023-02-24T18:13:08.896Z,20.08
2023-02-24T18:14:08.879Z,20.08
2023-02-24T18:15:09.573Z,20.03
2023-02-24T18:16:08.959Z,20.05
2023-02-24T18:17:08.848Z,20.02
2023-02-24T18:18:08.844Z,20.02
2023-02-24T18:19:08.838Z,20.11
2023-02-24T18:20:08.848Z,20.10
2023-02-24T18:21:08.872Z,20.10
2023-02-24T18:22:08.800Z,20.05
2023-02-24T18:23:08.791Z,20.08
2023-02-24T18:24:08.784Z,20.06
2023-02-24T18:25:08.801Z,20.16
2023-02-24T18:26:08.778Z,20.08
2023-02-24T18:27:08.755Z,20.08
2023-02-24T18:28:08.759Z,20.16
2023-02-24T18:29:08.737Z,20.10
2023-02-24T18:30:08.726Z,20.08
2023-02-24T18:31:08.808Z,20.10
2023-02-24T18:32:08.956Z,20.06
2023-02-24T18:33:08.930Z,20.06
2023-02-24T18:34:08.690Z,20.03
2023-02-24T18:35:08.680Z,20.05
2023-02-24T18:36:08.676Z,20.03
2023-02-24T18:37:08.663Z,20.06
2023-02-24T18:38:08.655Z,20.05
2023-02-24T18:39:08.641Z,20.06
2023-02-24T18:40:08.646Z,20.08
2023-02-24T18:41:08.636Z,20.08
2023-02-24T18:42:08.615Z,20.08
2023-02-24T18:43:08.611Z,20.05
2023-02-24T18:44:08.602Z,20.06
2023-02-24T18:45:08.589Z,20.08
2023-02-24T18:46:08.633Z,20.03
2023-02-24T18:47:08.571Z,20.02
2023-02-24T18:48:08.596Z,20.02
2023-02-24T18:49:08.553Z,19.94
2023-02-24T18:50:08.547Z,20.05
2023-02-24T18:51:08.536Z,19.96
2023-02-24T18:52:08.550Z,19.92
2023-02-24T18:53:08.512Z,19.92
2023-02-24T18:54:08.529Z,19.92
2023-02-24T18:55:08.546Z,19.95
2023-02-24T18:56:08.576Z,19.96
2023-02-24T18:57:08.481Z,19.87
2023-02-24T18:58:08.467Z,19.99
2023-02-24T18:59:08.455Z,19.87
2023-02-24T19:00:08.446Z,20.02
2023-02-24T19:01:08.443Z,19.78
2023-02-24T19:02:08.528Z,19.88
2023-02-24T19:03:08.535Z,19.86
2023-02-24T19:04:08.440Z,19.91
2023-02-24T19:05:08.403Z,19.88
2023-02-24T19:06:08.415Z,19.84
2023-02-24T19:07:08.378Z,19.88
2023-02-24T19:08:08.369Z,19.81
2023-02-24T19:09:08.359Z,19.88
2023-02-24T19:10:08.383Z,19.80
2023-02-24T19:11:08.344Z,19.84
2023-02-24T19:12:08.364Z,19.84
2023-02-24T19:13:08.321Z,19.80
2023-02-24T19:14:09.434Z,19.76
2023-02-24T19:15:08.301Z,19.84
2023-02-24T19:16:08.379Z,19.77
2023-02-24T19:17:08.308Z,19.78
2023-02-24T19:18:08.286Z,19.81
2023-02-24T19:19:08.269Z,19.77
2023-02-24T19:20:08.291Z,19.77
2023-02-24T19:21:08.299Z,19.77
2023-02-24T19:22:08.232Z,19.68
2023-02-24T19:23:08.228Z,19.76
2023-02-24T19:24:08.527Z,19.74
2023-02-24T19:25:08.207Z,19.71
2023-02-24T19:26:08.194Z,19.68
2023-02-24T19:27:08.212Z,19.69
2023-02-24T19:28:08.173Z,19.66
2023-02-24T19:29:08.167Z,19.61
2023-02-24T19:30:08.154Z,19.66
2023-02-24T19:31:08.299Z,19.65
2023-02-24T19:32:08.310Z,19.65
2023-02-24T19:33:08.214Z,19.65
2023-02-24T19:34:08.132Z,19.65
2023-02-24T19:35:08.108Z,19.62
2023-02-24T19:36:08.104Z,19.65
2023-02-24T19:37:08.095Z,19.51
2023-02-24T19:38:08.081Z,19.55
2023-02-24T19:39:08.110Z,19.56
2023-02-24T19:40:08.071Z,19.61
2023-02-24T19:41:08.068Z,19.61
2023-02-24T19:42:08.041Z,19.56
2023-02-24T19:43:08.033Z,19.58
2023-02-24T19:44:08.023Z,19.56
2023-02-24T19:45:08.011Z,19.62
2023-02-24T19:46:08.058Z,19.59
2023-02-24T19:47:07.992Z,19.59
2023-02-24T19:48:07.984Z,19.56
2023-02-24T19:49:07.972Z,19.56
2023-02-24T19:50:08.000Z,19.54
2023-02-24T19:51:07.980Z,19.56
2023-02-24T19:52:07.945Z,19.44
2023-02-24T19:53:07.945Z,19.44
2023-02-24T19:54:07.985Z,19.46
2023-02-24T19:55:07.911Z,19.40
2023-02-24T19:56:07.932Z,19.46
2023-02-24T19:57:10.188Z,19.43
2023-02-24T19:58:07.884Z,19.44
2023-02-24T19:59:07.883Z,19.44
2023-02-24T20:00:07.862Z,19.41
2023-02-24T20:01:08.027Z,19.43
2023-02-24T20:02:07.845Z,19.44
2023-02-24T20:03:07.832Z,19.43
2023-02-24T20:04:07.828Z,19.41
2023-02-24T20:05:07.900Z,19.43
2023-02-24T20:06:07.800Z,19.44
2023-02-24T20:07:07.794Z,19.36
2023-02-24T20:08:07.802Z,19.40
2023-02-24T20:09:07.773Z,19.33
2023-02-24T20:10:07.770Z,19.41
2023-02-24T20:11:07.754Z,19.41
2023-02-24T20:12:07.769Z,19.39
2023-02-24T20:13:07.747Z,19.39
2023-02-24T20:14:07.762Z,19.41
2023-02-24T20:15:07.714Z,19.37
2023-02-24T20:16:07.775Z,19.39
2023-02-24T20:17:07.762Z,19.37
2023-02-24T20:18:07.718Z,19.43
2023-02-24T20:19:07.671Z,19.36
2023-02-24T20:20:07.664Z,19.47
2023-02-24T20:21:07.654Z,19.48
2023-02-24T20:22:07.645Z,19.47
2023-02-24T20:23:07.632Z,19.44
2023-02-24T20:24:07.670Z,19.43
2023-02-24T20:25:07.614Z,19.50
2023-02-24T20:26:07.600Z,19.40
2023-02-24T20:27:07.595Z,19.41
2023-02-24T20:28:07.585Z,19.44
2023-02-24T20:29:07.573Z,19.43
2023-02-24T20:30:07.561Z,19.43
2023-02-24T20:31:07.608Z,19.48
2023-02-24T20:32:07.660Z,19.43
2023-02-24T20:33:07.559Z,19.41
2023-02-24T20:34:07.522Z,19.41
2023-02-24T20:35:07.554Z,19.41
2023-02-24T20:36:07.511Z,19.41
2023-02-24T20:37:07.493Z,19.43
2023-02-24T20:38:07.518Z,19.39
2023-02-24T20:39:07.484Z,19.39
2023-02-24T20:40:07.473Z,19.28
2023-02-24T20:41:07.454Z,19.26
2023-02-24T20:42:07.445Z,19.26
2023-02-24T20:43:07.434Z,19.28
2023-02-24T20:44:07.426Z,19.25
2023-02-24T20:45:07.442Z,19.29
2023-02-24T20:46:07.436Z,19.29
2023-02-24T20:47:07.395Z,19.32
2023-02-24T20:48:07.410Z,19.26
2023-02-24T20:49:07.404Z,19.21
2023-02-24T20:50:07.398Z,19.11
2023-02-24T20:51:07.354Z,19.06
2023-02-24T20:52:07.349Z,18.95
2023-02-24T20:53:07.338Z,18.85
2023-02-24T20:54:07.322Z,18.78
2023-02-24T20:55:07.343Z,18.69
2023-02-24T20:56:07.356Z,18.80
2023-02-24T20:57:07.301Z,18.66
2023-02-24T20:58:07.281Z,18.63
2023-02-24T20:59:07.274Z,18.60
2023-02-24T21:00:07.277Z,18.60
2023-02-24T21:01:07.381Z,18.58
2023-02-24T21:02:07.244Z,18.51
2023-02-24T21:03:07.230Z,18.54
2023-02-24T21:04:07.226Z,18.41
2023-02-24T21:05:07.295Z,18.42
2023-02-24T21:06:10.222Z,18.44
2023-02-24T21:07:07.221Z,18.39
2023-02-24T21:08:07.197Z,18.37
2023-02-24T21:09:07.176Z,18.44
2023-02-24T21:10:07.247Z,18.41
2023-02-24T21:11:09.360Z,18.47
2023-02-24T21:12:07.147Z,18.51
2023-02-24T21:13:07.130Z,18.48
2023-02-24T21:14:07.151Z,18.57
2023-02-24T21:15:07.131Z,18.47
2023-02-24T21:16:07.177Z,18.48
2023-02-24T21:17:07.088Z,18.57
2023-02-24T21:18:07.096Z,18.60
2023-02-24T21:19:07.076Z,18.55
2023-02-24T21:20:07.056Z,18.51
2023-02-24T21:21:07.088Z,18.54
2023-02-24T21:22:07.032Z,18.55
2023-02-24T21:23:07.044Z,18.60
2023-02-24T21:24:07.012Z,18.51
2023-02-24T21:25:07.003Z,18.58
2023-02-24T21:26:06.996Z,18.58
2023-02-24T21:27:07.012Z,18.60
2023-02-24T21:28:06.978Z,18.55
2023-02-24T21:29:06.959Z,18.57
2023-02-24T21:30:07.011Z,18.47
2023-02-24T21:31:07.163Z,18.65
2023-02-24T21:32:07.074Z,18.57
2023-02-24T21:33:06.917Z,18.57
2023-02-24T21:34:06.953Z,18.55
2023-02-24T21:35:06.899Z,18.55
2023-02-24T21:36:06.890Z,18.58
2023-02-24T21:37:06.880Z,18.54
2023-02-24T21:38:06.866Z,18.52
2023-02-24T21:39:06.858Z,18.58
2023-02-24T21:40:06.870Z,18.54
2023-02-24T21:41:06.840Z,18.62
2023-02-24T21:42:06.851Z,18.58
2023-02-24T21:43:06.842Z,18.58
2023-02-24T21:44:06.811Z,18.52
2023-02-24T21:45:06.821Z,18.57
2023-02-24T21:46:06.825Z,18.55
2023-02-24T21:47:06.771Z,18.51
2023-02-24T21:48:06.758Z,18.57
2023-02-24T21:49:06.750Z,18.58
2023-02-24T21:50:06.763Z,18.60
2023-02-24T21:51:06.753Z,18.54
2023-02-24T21:52:06.744Z,18.57
2023-02-24T21:53:06.722Z,18.48
2023-02-24T21:54:06.697Z,18.57
2023-02-24T21:55:06.691Z,18.57
2023-02-24T21:56:06.732Z,18.55
2023-02-24T21:57:06.667Z,18.52
2023-02-24T21:58:06.659Z,18.50
2023-02-24T21:59:06.647Z,18.51
2023-02-24T22:00:06.643Z,18.47
2023-02-24T22:01:06.638Z,18.50
2023-02-24T22:02:06.615Z,18.52
2023-02-24T22:03:06.651Z,18.50
2023-02-24T22:04:06.590Z,18.51
2023-02-24T22:05:06.582Z,18.55
2023-02-24T22:06:06.578Z,18.47
2023-02-24T22:07:06.561Z,18.44
2023-02-24T22:08:06.578Z,18.41
2023-02-24T22:09:06.539Z,18.42
2023-02-24T22:10:06.525Z,18.48
2023-02-24T22:11:06.544Z,18.39
2023-02-24T22:12:06.533Z,18.44
2023-02-24T22:13:06.498Z,18.36
2023-02-24T22:14:06.484Z,18.33
2023-02-24T22:15:06.475Z,18.29
2023-02-24T22:16:06.553Z,18.35
2023-02-24T22:17:06.484Z,18.27
2023-02-24T22:18:06.482Z,18.23
2023-02-24T22:19:06.452Z,18.21
2023-02-24T22:20:06.426Z,18.29
2023-02-24T22:21:06.410Z,18.25
2023-02-24T22:22:06.409Z,18.20
2023-02-24T22:23:06.392Z,18.14
2023-02-24T22:24:06.385Z,18.18
2023-02-24T22:25:06.369Z,18.18
2023-02-24T22:26:06.385Z,18.12
2023-02-24T22:27:06.347Z,18.08
2023-02-24T22:28:06.337Z,18.12
2023-02-24T22:29:06.327Z,18.05
2023-02-24T22:30:06.314Z,18.10
2023-02-24T22:31:06.412Z,18.02
2023-02-24T22:32:06.457Z,18.05
2023-02-24T22:33:06.301Z,18.05
2023-02-24T22:34:06.337Z,18.02
2023-02-24T22:35:06.266Z,18.05
2023-02-24T22:36:06.267Z,17.95
2023-02-24T22:37:06.273Z,18.00
2023-02-24T22:38:06.230Z,17.96
2023-02-24T22:39:06.223Z,17.97
2023-02-24T22:40:06.258Z,17.96
2023-02-24T22:41:06.199Z,17.95
2023-02-24T22:42:06.188Z,17.93
2023-02-24T22:43:06.184Z,17.87
2023-02-24T22:44:06.175Z,17.87
2023-02-24T22:45:06.165Z,17.89
2023-02-24T22:46:06.173Z,17.84
2023-02-24T22:47:06.188Z,17.86
2023-02-24T22:48:06.214Z,17.87
2023-02-24T22:49:06.114Z,17.84
2023-02-24T22:50:06.130Z,17.84
2023-02-24T22:51:06.093Z,17.89
2023-02-24T22:52:06.092Z,17.84
2023-02-24T22:53:06.070Z,17.79
2023-02-24T22:54:06.057Z,17.82
2023-02-24T22:55:06.074Z,17.84
2023-02-24T22:56:06.037Z,17.87
2023-02-24T22:57:06.024Z,17.81
2023-02-24T22:58:06.021Z,17.77
2023-02-24T22:59:06.013Z,17.78
2023-02-24T23:00:06.020Z,17.74
2023-02-24T23:01:06.041Z,17.75
2023-02-24T23:02:05.969Z,17.84
2023-02-24T23:03:05.966Z,17.79
2023-02-24T23:04:06.026Z,17.72
2023-02-24T23:05:05.985Z,17.79
2023-02-24T23:06:05.954Z,17.86
2023-02-24T23:07:05.919Z,17.79
2023-02-24T23:08:05.914Z,17.77
2023-02-24T23:09:05.893Z,17.75
2023-02-24T23:10:05.884Z,17.77
2023-02-24T23:11:05.870Z,17.77
2023-02-24T23:12:05.861Z,17.71
2023-02-24T23:13:05.852Z,17.74
2023-02-24T23:14:05.847Z,17.77
2023-02-24T23:15:05.824Z,17.68
2023-02-24T23:16:05.864Z,17.56
2023-02-24T23:17:05.803Z,17.66
2023-02-24T23:18:05.789Z,17.62
2023-02-24T23:19:05.804Z,17.68
2023-02-24T23:20:05.781Z,17.56
2023-02-24T23:21:05.801Z,17.58
2023-02-24T23:22:05.780Z,17.55
2023-02-24T23:23:05.760Z,17.56
2023-02-24T23:24:05.723Z,17.54
2023-02-24T23:25:05.712Z,17.54
2023-02-24T23:26:05.700Z,17.56
2023-02-24T23:27:05.694Z,17.55
2023-02-24T23:28:05.710Z,17.56
2023-02-24T23:29:05.671Z,17.51
2023-02-24T23:30:05.655Z,17.52
2023-02-24T23:31:05.710Z,17.58
2023-02-24T23:32:05.800Z,17.51
2023-02-24T23:33:05.623Z,17.55
2023-02-24T23:34:05.616Z,17.41
2023-02-24T23:35:05.598Z,17.51
2023-02-24T23:36:05.598Z,17.48
2023-02-24T23:37:05.702Z,17.49
2023-02-24T23:38:05.569Z,17.51
2023-02-24T23:39:05.593Z,17.43
2023-02-24T23:40:05.555Z,17.40
2023-02-24T23:41:05.536Z,17.40
2023-02-24T23:42:05.557Z,17.48
2023-02-24T23:43:05.511Z,17.46
2023-02-24T23:44:05.502Z,17.36
2023-02-24T23:45:05.556Z,17.38
2023-02-24T23:46:05.572Z,17.28
2023-02-24T23:47:05.505Z,17.38
2023-02-24T23:48:05.457Z,17.31
2023-02-24T23:49:05.447Z,17.26
2023-02-24T23:50:05.438Z,17.33
2023-02-24T23:51:05.426Z,17.33
2023-02-24T23:52:05.447Z,17.25
2023-02-24T23:53:05.435Z,17.30
2023-02-24T23:54:05.391Z,17.26
2023-02-24T23:55:05.412Z,17.31
2023-02-24T23:56:05.367Z,17.26
2023-02-24T23:57:05.352Z,17.28
2023-02-24T23:58:05.360Z,17.21
2023-02-24T23:59:05.329Z,17.23
